Arbor Vitae, Wisconsin
Current Conditions -  °F | °C
As of 2:35 AM on Monday 22 Dec 2014 (Local Time) from KARV Reporting Station
Haze Haze  
Wind Chill: -3°   Ceiling: 300
Heat Index:   Visibility: 3mi
Dew Point:   Wind: 8mph
Humidity: 94%   Direction: 180°S
Pressure: 29.81"   Gusts: 16mph
Location:  45.9553°N, 89.6779°W
Report Text: KARV 220835Z AUTO 18007G14KT 3SM BR OVC003 01/00 A2981 RMK AO2 T00110003
Loading
Personal Weather Stations






























Interactive Weather Map New forecast layout! Learn more

10-Day Weather Forecast

Advertisements
Track Severe Weather on mobile